sensor_id;sensor_type;location;lat;lon;timestamp;pressure;altitude;pressure_sealevel;temperature;humidity
70458;BME280;57919;56.194;95.716;2022-08-20T00:07:23;98633.69;;;12.64;79.29
70458;BME280;57919;56.194;95.716;2022-08-20T00:17:26;98637.38;;;12.54;79.57
70458;BME280;57919;56.194;95.716;2022-08-20T00:27:31;98631.63;;;12.57;79.60
70458;BME280;57919;56.194;95.716;2022-08-20T00:37:33;98635.13;;;12.50;79.65
70458;BME280;57919;56.194;95.716;2022-08-20T00:47:35;98642.34;;;12.67;79.60
70458;BME280;57919;56.194;95.716;2022-08-20T00:57:44;98649.03;;;12.81;79.33
70458;BME280;57919;56.194;95.716;2022-08-20T01:07:47;98656.81;;;12.76;79.57
70458;BME280;57919;56.194;95.716;2022-08-20T01:17:52;98660.19;;;12.78;79.79
70458;BME280;57919;56.194;95.716;2022-08-20T01:27:54;98665.50;;;12.87;79.52
70458;BME280;57919;56.194;95.716;2022-08-20T01:37:57;98665.88;;;12.92;79.93
70458;BME280;57919;56.194;95.716;2022-08-20T01:47:59;98670.16;;;13.11;79.89
70458;BME280;57919;56.194;95.716;2022-08-20T01:58:01;98672.66;;;13.39;79.74
70458;BME280;57919;56.194;95.716;2022-08-20T02:08:03;98677.97;;;13.81;79.49
70458;BME280;57919;56.194;95.716;2022-08-20T02:18:08;98685.44;;;14.19;78.60
70458;BME280;57919;56.194;95.716;2022-08-20T02:28:15;98684.59;;;14.35;78.72
70458;BME280;57919;56.194;95.716;2022-08-20T02:38:17;98682.47;;;14.78;78.06
70458;BME280;57919;56.194;95.716;2022-08-20T02:48:20;98689.38;;;15.36;77.17
70458;BME280;57919;56.194;95.716;2022-08-20T02:58:23;98694.91;;;16.42;74.76
70458;BME280;57919;56.194;95.716;2022-08-20T03:08:27;98695.94;;;16.78;73.97
70458;BME280;57919;56.194;95.716;2022-08-20T03:18:33;98697.34;;;17.69;72.03
70458;BME280;57919;56.194;95.716;2022-08-20T03:28:35;98694.34;;;18.78;68.67
70458;BME280;57919;56.194;95.716;2022-08-20T03:38:38;98692.78;;;18.96;68.18
70458;BME280;57919;56.194;95.716;2022-08-20T03:48:40;98702.25;;;19.35;67.33
70458;BME280;57919;56.194;95.716;2022-08-20T03:58:42;98700.56;;;18.65;67.11
70458;BME280;57919;56.194;95.716;2022-08-20T04:08:44;98701.16;;;18.60;67.20
70458;BME280;57919;56.194;95.716;2022-08-20T04:18:46;98696.84;;;18.51;66.71
70458;BME280;57919;56.194;95.716;2022-08-20T04:28:48;98694.25;;;18.43;66.05
70458;BME280;57919;56.194;95.716;2022-08-20T04:38:56;98707.41;;;18.54;64.82
70458;BME280;57919;56.194;95.716;2022-08-20T04:48:58;98714.56;;;18.06;64.01
70458;BME280;57919;56.194;95.716;2022-08-20T04:59:01;98722.59;;;16.16;65.34
70458;BME280;57919;56.194;95.716;2022-08-20T05:09:03;98723.38;;;15.48;66.29
70458;BME280;57919;56.194;95.716;2022-08-20T05:19:11;98725.94;;;15.10;67.09
70458;BME280;57919;56.194;95.716;2022-08-20T05:29:13;98721.59;;;14.85;67.67
70458;BME280;57919;56.194;95.716;2022-08-20T05:39:20;98720.03;;;14.99;67.16
70458;BME280;57919;56.194;95.716;2022-08-20T05:49:23;98735.88;;;15.73;66.09
70458;BME280;57919;56.194;95.716;2022-08-20T05:59:25;98741.16;;;15.98;64.85
70458;BME280;57919;56.194;95.716;2022-08-20T06:09:28;98741.31;;;16.65;63.71
70458;BME280;57919;56.194;95.716;2022-08-20T06:19:31;98747.25;;;17.42;61.00
70458;BME280;57919;56.194;95.716;2022-08-20T06:29:34;98732.88;;;18.05;59.37
70458;BME280;57919;56.194;95.716;2022-08-20T06:39:37;98730.63;;;18.58;58.51
70458;BME280;57919;56.194;95.716;2022-08-20T06:49:39;98729.63;;;17.95;58.34
70458;BME280;57919;56.194;95.716;2022-08-20T06:59:41;98714.66;;;18.62;57.58
70458;BME280;57919;56.194;95.716;2022-08-20T07:09:42;98717.88;;;19.00;57.13
70458;BME280;57919;56.194;95.716;2022-08-20T07:19:45;98732.97;;;19.17;56.26
70458;BME280;57919;56.194;95.716;2022-08-20T07:29:48;98724.13;;;19.56;53.65
70458;BME280;57919;56.194;95.716;2022-08-20T07:40:16;98729.53;;;19.09;51.81
70458;BME280;57919;56.194;95.716;2022-08-20T07:50:22;98725.38;;;18.85;53.15
70458;BME280;57919;56.194;95.716;2022-08-20T08:00:24;98720.75;;;18.85;52.14
70458;BME280;57919;56.194;95.716;2022-08-20T08:10:27;98714.31;;;18.99;51.56
70458;BME280;57919;56.194;95.716;2022-08-20T08:20:29;98722.19;;;19.16;48.92
70458;BME280;57919;56.194;95.716;2022-08-20T08:30:31;98713.00;;;19.78;47.73
70458;BME280;57919;56.194;95.716;2022-08-20T08:40:34;98728.94;;;20.15;45.73
70458;BME280;57919;56.194;95.716;2022-08-20T08:50:36;98742.59;;;19.82;46.98
70458;BME280;57919;56.194;95.716;2022-08-20T09:00:38;98729.66;;;18.94;45.27
70458;BME280;57919;56.194;95.716;2022-08-20T09:10:41;98739.47;;;18.82;46.28
70458;BME280;57919;56.194;95.716;2022-08-20T09:20:44;98739.47;;;19.10;46.76
70458;BME280;57919;56.194;95.716;2022-08-20T09:30:46;98746.47;;;18.84;45.76
70458;BME280;57919;56.194;95.716;2022-08-20T09:40:48;98749.09;;;18.71;46.25
70458;BME280;57919;56.194;95.716;2022-08-20T09:50:50;98744.53;;;18.57;46.43
70458;BME280;57919;56.194;95.716;2022-08-20T10:00:52;98732.00;;;18.69;46.85
70458;BME280;57919;56.194;95.716;2022-08-20T10:10:54;98750.41;;;18.54;47.09
70458;BME280;57919;56.194;95.716;2022-08-20T10:20:56;98735.28;;;18.36;47.06
70458;BME280;57919;56.194;95.716;2022-08-20T10:30:58;98738.88;;;18.86;47.50
70458;BME280;57919;56.194;95.716;2022-08-20T10:41:00;98731.47;;;19.15;47.54
70458;BME280;57919;56.194;95.716;2022-08-20T10:51:03;98730.50;;;19.29;47.65
70458;BME280;57919;56.194;95.716;2022-08-20T11:01:07;98733.34;;;19.49;48.17
70458;BME280;57919;56.194;95.716;2022-08-20T11:11:11;98731.00;;;19.46;48.94
70458;BME280;57919;56.194;95.716;2022-08-20T11:21:14;98719.22;;;19.11;49.65
70458;BME280;57919;56.194;95.716;2022-08-20T11:31:16;98735.09;;;18.87;50.41
70458;BME280;57919;56.194;95.716;2022-08-20T11:41:18;98727.69;;;18.60;50.99
70458;BME280;57919;56.194;95.716;2022-08-20T11:51:22;98733.94;;;18.26;52.36
70458;BME280;57919;56.194;95.716;2022-08-20T12:01:24;98745.31;;;17.87;53.18
70458;BME280;57919;56.194;95.716;2022-08-20T12:11:26;98750.94;;;17.49;54.50
70458;BME280;57919;56.194;95.716;2022-08-20T12:21:28;98743.69;;;17.12;55.85
70458;BME280;57919;56.194;95.716;2022-08-20T12:31:30;98755.84;;;16.80;57.13
70458;BME280;57919;56.194;95.716;2022-08-20T12:41:33;98771.91;;;16.37;58.77
70458;BME280;57919;56.194;95.716;2022-08-20T12:51:35;98781.97;;;15.91;60.04
70458;BME280;57919;56.194;95.716;2022-08-20T13:01:37;98777.53;;;15.51;61.42
70458;BME280;57919;56.194;95.716;2022-08-20T13:11:39;98787.56;;;15.11;62.61
70458;BME280;57919;56.194;95.716;2022-08-20T13:21:40;98792.06;;;14.80;63.72
70458;BME280;57919;56.194;95.716;2022-08-20T13:31:43;98802.81;;;14.57;64.65
70458;BME280;57919;56.194;95.716;2022-08-20T13:41:45;98802.13;;;14.47;65.29
70458;BME280;57919;56.194;95.716;2022-08-20T13:51:47;98796.69;;;14.47;65.71
70458;BME280;57919;56.194;95.716;2022-08-20T14:01:49;98818.28;;;14.48;65.58
70458;BME280;57919;56.194;95.716;2022-08-20T14:11:51;98808.09;;;14.50;65.53
70458;BME280;57919;56.194;95.716;2022-08-20T14:21:53;98807.56;;;14.47;65.94
70458;BME280;57919;56.194;95.716;2022-08-20T14:31:55;98808.78;;;14.44;66.54
70458;BME280;57919;56.194;95.716;2022-08-20T14:41:57;98813.84;;;14.39;67.12
70458;BME280;57919;56.194;95.716;2022-08-20T14:51:58;98809.06;;;14.41;67.62
70458;BME280;57919;56.194;95.716;2022-08-20T15:02:00;98808.09;;;14.42;68.31
70458;BME280;57919;56.194;95.716;2022-08-20T15:12:03;98815.56;;;14.57;68.18
70458;BME280;57919;56.194;95.716;2022-08-20T15:22:06;98816.75;;;14.62;68.69
70458;BME280;57919;56.194;95.716;2022-08-20T15:32:07;98799.06;;;14.58;68.83
70458;BME280;57919;56.194;95.716;2022-08-20T15:42:11;98821.19;;;14.63;69.41
70458;BME280;57919;56.194;95.716;2022-08-20T15:52:13;98817.94;;;14.68;69.58
70458;BME280;57919;56.194;95.716;2022-08-20T16:12:39;98826.81;;;14.62;70.97
70458;BME280;57919;56.194;95.716;2022-08-20T16:22:44;98825.94;;;14.61;71.43
70458;BME280;57919;56.194;95.716;2022-08-20T16:32:56;98832.94;;;14.64;71.59
70458;BME280;57919;56.194;95.716;2022-08-20T16:43:04;98831.41;;;14.61;71.90
70458;BME280;57919;56.194;95.716;2022-08-20T16:53:15;98825.44;;;14.58;71.99
70458;BME280;57919;56.194;95.716;2022-08-20T17:03:28;98828.16;;;14.49;72.81
70458;BME280;57919;56.194;95.716;2022-08-20T17:13:45;98830.00;;;14.41;72.70
70458;BME280;57919;56.194;95.716;2022-08-20T17:23:51;98823.69;;;14.40;72.84
70458;BME280;57919;56.194;95.716;2022-08-20T17:33:53;98828.47;;;14.30;73.11
70458;BME280;57919;56.194;95.716;2022-08-20T17:54:13;98828.13;;;14.33;73.76
70458;BME280;57919;56.194;95.716;2022-08-20T18:04:16;98829.81;;;14.34;73.90
70458;BME280;57919;56.194;95.716;2022-08-20T18:14:32;98819.78;;;14.35;74.04
70458;BME280;57919;56.194;95.716;2022-08-20T18:24:43;98812.47;;;14.35;74.11
70458;BME280;57919;56.194;95.716;2022-08-20T18:34:48;98810.25;;;14.31;74.32
70458;BME280;57919;56.194;95.716;2022-08-20T18:44:53;98809.22;;;14.15;74.12
70458;BME280;57919;56.194;95.716;2022-08-20T18:55:00;98815.31;;;14.01;74.32
70458;BME280;57919;56.194;95.716;2022-08-20T19:05:07;98808.50;;;13.89;74.62
70458;BME280;57919;56.194;95.716;2022-08-20T19:25:56;98809.97;;;13.67;75.05
70458;BME280;57919;56.194;95.716;2022-08-20T19:36:19;98797.41;;;13.66;75.43
70458;BME280;57919;56.194;95.716;2022-08-20T19:46:32;98808.28;;;13.74;75.55
70458;BME280;57919;56.194;95.716;2022-08-20T19:56:39;98791.81;;;13.76;75.76
70458;BME280;57919;56.194;95.716;2022-08-20T20:06:44;98800.47;;;13.71;76.17
70458;BME280;57919;56.194;95.716;2022-08-20T20:16:49;98806.56;;;13.65;76.12
70458;BME280;57919;56.194;95.716;2022-08-20T20:26:51;98789.03;;;13.51;76.51
70458;BME280;57919;56.194;95.716;2022-08-20T20:37:33;98794.94;;;13.47;76.71
70458;BME280;57919;56.194;95.716;2022-08-20T20:47:36;98781.69;;;13.44;77.11
70458;BME280;57919;56.194;95.716;2022-08-20T20:57:37;98791.41;;;13.54;77.08
70458;BME280;57919;56.194;95.716;2022-08-20T21:07:53;98795.31;;;13.52;77.36
70458;BME280;57919;56.194;95.716;2022-08-20T21:18:01;98790.13;;;13.33;77.81
70458;BME280;57919;56.194;95.716;2022-08-20T21:28:03;98776.84;;;13.21;77.73
70458;BME280;57919;56.194;95.716;2022-08-20T21:38:05;98793.81;;;13.23;78.00
70458;BME280;57919;56.194;95.716;2022-08-20T21:48:07;98796.47;;;13.15;77.92
70458;BME280;57919;56.194;95.716;2022-08-20T21:58:10;98798.50;;;13.13;78.21
70458;BME280;57919;56.194;95.716;2022-08-20T22:08:12;98787.22;;;13.00;78.11
70458;BME280;57919;56.194;95.716;2022-08-20T22:18:15;98801.34;;;13.04;78.33
70458;BME280;57919;56.194;95.716;2022-08-20T22:28:18;98799.41;;;12.96;78.46
70458;BME280;57919;56.194;95.716;2022-08-20T22:38:20;98808.25;;;12.98;78.98
70458;BME280;57919;56.194;95.716;2022-08-20T22:48:22;98809.81;;;13.01;78.74
70458;BME280;57919;56.194;95.716;2022-08-20T22:58:24;98813.38;;;13.01;79.04
70458;BME280;57919;56.194;95.716;2022-08-20T23:08:26;98817.31;;;13.07;78.63
70458;BME280;57919;56.194;95.716;2022-08-20T23:18:29;98806.59;;;13.05;78.60
70458;BME280;57919;56.194;95.716;2022-08-20T23:28:31;98820.72;;;13.09;78.38
70458;BME280;57919;56.194;95.716;2022-08-20T23:38:33;98826.66;;;13.12;78.82
70458;BME280;57919;56.194;95.716;2022-08-20T23:48:35;98819.78;;;13.18;78.59
70458;BME280;57919;56.194;95.716;2022-08-20T23:58:37;98828.25;;;13.49;78.21
